sensor_id;sensor_type;location;lat;lon;timestamp;pressure;altitude;pressure_sealevel;temperature;humidity
50250;BME280;36133;42.522;27.456;2023-07-20T00:00:22;100704.44;;;29.97;51.74
50250;BME280;36133;42.522;27.456;2023-07-20T00:02:51;100683.19;;;29.79;51.77
50250;BME280;36133;42.522;27.456;2023-07-20T00:05:17;100670.06;;;29.71;51.99
50250;BME280;36133;42.522;27.456;2023-07-20T00:07:50;100528.94;;;28.73;51.79
50250;BME280;36133;42.522;27.456;2023-07-20T00:10:17;100367.72;;;27.70;52.24
50250;BME280;36133;42.522;27.456;2023-07-20T00:12:43;100381.69;;;26.91;54.33
50250;BME280;36133;42.522;27.456;2023-07-20T00:15:13;100708.13;;;29.62;53.38
50250;BME280;36133;42.522;27.456;2023-07-20T00:17:39;100482.84;;;28.09;53.76
50250;BME280;36133;42.522;27.456;2023-07-20T00:20:06;100500.19;;;28.42;52.97
50250;BME280;36133;42.522;27.456;2023-07-20T00:22:32;100620.50;;;29.14;52.73
50250;BME280;36133;42.522;27.456;2023-07-20T00:24:57;100369.59;;;27.75;52.35
50250;BME280;36133;42.522;27.456;2023-07-20T00:27:23;100576.19;;;29.09;52.51
50250;BME280;36133;42.522;27.456;2023-07-20T00:29:49;100538.13;;;28.82;52.77
50250;BME280;36133;42.522;27.456;2023-07-20T00:32:14;100566.13;;;29.00;53.30
50250;BME280;36133;42.522;27.456;2023-07-20T00:34:40;100484.53;;;28.59;53.36
50250;BME280;36133;42.522;27.456;2023-07-20T00:37:08;100283.75;;;27.14;54.13
50250;BME280;36133;42.522;27.456;2023-07-20T00:39:34;100721.63;;;29.55;55.10
50250;BME280;36133;42.522;27.456;2023-07-20T00:42:00;100288.53;;;26.95;55.02
50250;BME280;36133;42.522;27.456;2023-07-20T00:44:54;100265.63;;;26.76;55.10
50250;BME280;36133;42.522;27.456;2023-07-20T00:47:22;100733.38;;;29.52;55.33
50250;BME280;36133;42.522;27.456;2023-07-20T00:49:51;100464.25;;;27.22;55.58
50250;BME280;36133;42.522;27.456;2023-07-20T00:52:21;100298.22;;;25.57;56.58
50250;BME280;36133;42.522;27.456;2023-07-20T00:54:49;100271.25;;;25.68;56.47
50250;BME280;36133;42.522;27.456;2023-07-20T00:57:15;100585.50;;;28.22;54.31
50250;BME280;36133;42.522;27.456;2023-07-20T00:59:43;100675.72;;;28.66;54.71
50250;BME280;36133;42.522;27.456;2023-07-20T01:02:08;100292.66;;;26.51;53.27
50250;BME280;36133;42.522;27.456;2023-07-20T01:04:37;100548.53;;;28.27;52.80
50250;BME280;36133;42.522;27.456;2023-07-20T01:07:44;100714.53;;;28.99;53.38
50250;BME280;36133;42.522;27.456;2023-07-20T01:10:35;100605.03;;;28.17;53.32
50250;BME280;36133;42.522;27.456;2023-07-20T01:13:03;100716.47;;;29.12;52.85
50250;BME280;36133;42.522;27.456;2023-07-20T01:15:33;100529.81;;;28.05;51.97
50250;BME280;36133;42.522;27.456;2023-07-20T01:17:59;100578.66;;;28.34;52.31
50250;BME280;36133;42.522;27.456;2023-07-20T01:20:28;100601.06;;;28.51;52.30
50250;BME280;36133;42.522;27.456;2023-07-20T01:28:41;100685.94;;;28.11;54.32
50250;BME280;36133;42.522;27.456;2023-07-20T01:31:23;100847.19;;;27.48;57.24
50250;BME280;36133;42.522;27.456;2023-07-20T01:33:53;100788.69;;;27.06;56.28
50250;BME280;36133;42.522;27.456;2023-07-20T01:36:22;100616.88;;;26.45;54.04
50250;BME280;36133;42.522;27.456;2023-07-20T01:38:48;100726.56;;;27.31;51.91
50250;BME280;36133;42.522;27.456;2023-07-20T01:41:15;100531.78;;;26.55;49.46
50250;BME280;36133;42.522;27.456;2023-07-20T01:43:42;100546.50;;;25.79;50.31
50250;BME280;36133;42.522;27.456;2023-07-20T01:46:08;100329.72;;;24.84;49.78
50250;BME280;36133;42.522;27.456;2023-07-20T01:48:33;100651.59;;;26.80;49.64
50250;BME280;36133;42.522;27.456;2023-07-20T01:50:59;100368.16;;;24.76;49.64
50250;BME280;36133;42.522;27.456;2023-07-20T01:53:24;100757.38;;;26.82;50.24
50250;BME280;36133;42.522;27.456;2023-07-20T01:55:52;100375.78;;;25.18;48.96
50250;BME280;36133;42.522;27.456;2023-07-20T01:58:18;100647.13;;;26.84;48.67
50250;BME280;36133;42.522;27.456;2023-07-20T02:00:44;100390.38;;;25.48;48.30
50250;BME280;36133;42.522;27.456;2023-07-20T02:03:10;100574.13;;;26.75;47.99
50250;BME280;36133;42.522;27.456;2023-07-20T02:05:37;100445.38;;;25.73;47.90
50250;BME280;36133;42.522;27.456;2023-07-20T02:08:03;100507.78;;;25.79;48.89
50250;BME280;36133;42.522;27.456;2023-07-20T02:10:28;100616.56;;;26.70;48.60
50250;BME280;36133;42.522;27.456;2023-07-20T02:12:54;100607.28;;;26.37;48.82
50250;BME280;36133;42.522;27.456;2023-07-20T02:15:20;100601.78;;;27.18;47.27
50250;BME280;36133;42.522;27.456;2023-07-20T02:17:46;100636.38;;;27.01;48.12
50250;BME280;36133;42.522;27.456;2023-07-20T02:20:12;100416.75;;;26.07;47.49
50250;BME280;36133;42.522;27.456;2023-07-20T02:22:39;100244.81;;;24.95;47.16
50250;BME280;36133;42.522;27.456;2023-07-20T02:25:05;100539.00;;;26.89;46.98
50250;BME280;36133;42.522;27.456;2023-07-20T02:27:34;100703.53;;;27.12;48.94
50250;BME280;36133;42.522;27.456;2023-07-20T02:30:00;100606.25;;;26.28;49.87
50250;BME280;36133;42.522;27.456;2023-07-20T02:32:30;100476.78;;;26.25;47.91
50250;BME280;36133;42.522;27.456;2023-07-20T02:34:55;100320.06;;;24.53;49.72
50250;BME280;36133;42.522;27.456;2023-07-20T02:37:21;100305.34;;;23.89;52.20
50250;BME280;36133;42.522;27.456;2023-07-20T02:39:46;100210.13;;;23.68;52.47
50250;BME280;36133;42.522;27.456;2023-07-20T02:42:15;100496.34;;;24.99;55.13
50250;BME280;36133;42.522;27.456;2023-07-20T02:44:41;100304.13;;;24.06;54.77
50250;BME280;36133;42.522;27.456;2023-07-20T02:47:06;100543.84;;;25.69;54.88
50250;BME280;36133;42.522;27.456;2023-07-20T02:49:32;100298.44;;;23.92;55.40
50250;BME280;36133;42.522;27.456;2023-07-20T02:51:57;100268.94;;;24.32;54.10
50250;BME280;36133;42.522;27.456;2023-07-20T02:54:23;100179.03;;;23.96;52.91
50250;BME280;36133;42.522;27.456;2023-07-20T02:56:49;100216.44;;;24.42;52.59
50250;BME280;36133;42.522;27.456;2023-07-20T02:59:15;100326.63;;;24.57;54.12
50250;BME280;36133;42.522;27.456;2023-07-20T03:01:40;100405.53;;;25.50;53.16
50250;BME280;36133;42.522;27.456;2023-07-20T03:04:07;100526.31;;;26.69;51.91
50250;BME280;36133;42.522;27.456;2023-07-20T03:06:35;100294.91;;;25.36;50.99
50250;BME280;36133;42.522;27.456;2023-07-20T03:09:13;100241.69;;;25.68;49.15
50250;BME280;36133;42.522;27.456;2023-07-20T03:11:38;100286.97;;;25.73;49.72
50250;BME280;36133;42.522;27.456;2023-07-20T03:14:10;100473.84;;;27.76;48.19
50250;BME280;36133;42.522;27.456;2023-07-20T03:16:36;100468.28;;;27.76;47.69
50250;BME280;36133;42.522;27.456;2023-07-20T03:19:02;100447.63;;;27.22;48.41
50250;BME280;36133;42.522;27.456;2023-07-20T03:21:27;100211.25;;;26.39;47.56
50250;BME280;36133;42.522;27.456;2023-07-20T03:23:54;100417.19;;;27.49;48.46
50250;BME280;36133;42.522;27.456;2023-07-20T03:26:20;100453.50;;;27.20;49.76
50250;BME280;36133;42.522;27.456;2023-07-20T03:28:45;100160.84;;;26.42;49.31
50250;BME280;36133;42.522;27.456;2023-07-20T03:31:11;100564.34;;;29.04;48.67
50250;BME280;36133;42.522;27.456;2023-07-20T03:33:36;100392.22;;;28.04;49.18
50250;BME280;36133;42.522;27.456;2023-07-20T03:36:02;100182.53;;;26.02;51.58
50250;BME280;36133;42.522;27.456;2023-07-20T03:38:28;100335.47;;;27.33;50.83
50250;BME280;36133;42.522;27.456;2023-07-20T03:40:58;100549.94;;;27.97;52.18
50250;BME280;36133;42.522;27.456;2023-07-20T03:43:26;100217.47;;;25.79;52.28
50250;BME280;36133;42.522;27.456;2023-07-20T03:45:52;100271.41;;;26.14;51.95
50250;BME280;36133;42.522;27.456;2023-07-20T03:48:20;100481.97;;;26.88;52.12
50250;BME280;36133;42.522;27.456;2023-07-20T03:50:47;100645.16;;;27.60;53.10
50250;BME280;36133;42.522;27.456;2023-07-20T03:53:14;100242.41;;;26.12;50.43
50250;BME280;36133;42.522;27.456;2023-07-20T03:55:47;100471.53;;;27.64;51.04
50250;BME280;36133;42.522;27.456;2023-07-20T03:58:13;100636.34;;;28.50;51.51
50250;BME280;36133;42.522;27.456;2023-07-20T04:00:39;100457.59;;;27.23;51.75
50250;BME280;36133;42.522;27.456;2023-07-20T04:03:05;100253.59;;;26.20;49.99
50250;BME280;36133;42.522;27.456;2023-07-20T04:05:31;100439.31;;;27.22;50.39
50250;BME280;36133;42.522;27.456;2023-07-20T04:07:57;100327.25;;;27.55;48.61
50250;BME280;36133;42.522;27.456;2023-07-20T04:10:22;100444.28;;;28.35;48.22
50250;BME280;36133;42.522;27.456;2023-07-20T04:12:48;100402.13;;;27.69;48.84
50250;BME280;36133;42.522;27.456;2023-07-20T04:15:14;100338.34;;;27.28;49.06
50250;BME280;36133;42.522;27.456;2023-07-20T04:17:40;100614.41;;;29.26;47.92
50250;BME280;36133;42.522;27.456;2023-07-20T04:20:07;100183.31;;;26.54;47.07
50250;BME280;36133;42.522;27.456;2023-07-20T04:22:33;100609.63;;;30.25;44.82
50250;BME280;36133;42.522;27.456;2023-07-20T04:24:58;100167.56;;;27.32;44.91
50250;BME280;36133;42.522;27.456;2023-07-20T04:27:24;100323.44;;;28.15;44.94
50250;BME280;36133;42.522;27.456;2023-07-20T04:29:50;100595.88;;;29.66;44.93
50250;BME280;36133;42.522;27.456;2023-07-20T04:32:19;100636.16;;;30.22;44.27
50250;BME280;36133;42.522;27.456;2023-07-20T04:34:44;100419.84;;;29.35;43.62
50250;BME280;36133;42.522;27.456;2023-07-20T04:37:10;100156.09;;;27.47;43.64
50250;BME280;36133;42.522;27.456;2023-07-20T04:39:35;100637.97;;;30.27;43.90
50250;BME280;36133;42.522;27.456;2023-07-20T04:42:01;100474.84;;;29.15;43.75
50250;BME280;36133;42.522;27.456;2023-07-20T04:44:26;100212.25;;;27.66;43.71
50250;BME280;36133;42.522;27.456;2023-07-20T04:46:52;100615.28;;;29.80;44.58
50250;BME280;36133;42.522;27.456;2023-07-20T04:49:18;100628.06;;;30.52;43.15
50250;BME280;36133;42.522;27.456;2023-07-20T04:51:43;100469.53;;;29.98;42.25
50250;BME280;36133;42.522;27.456;2023-07-20T04:54:09;100316.78;;;29.23;41.88
50250;BME280;36133;42.522;27.456;2023-07-20T04:56:34;100455.22;;;30.48;41.09
50250;BME280;36133;42.522;27.456;2023-07-20T04:59:00;100504.50;;;30.39;41.98
50250;BME280;36133;42.522;27.456;2023-07-20T05:01:26;100645.25;;;31.71;41.64
50250;BME280;36133;42.522;27.456;2023-07-20T05:03:54;100303.19;;;30.65;39.15
50250;BME280;36133;42.522;27.456;2023-07-20T05:06:19;100440.09;;;32.96;36.66
50250;BME280;36133;42.522;27.456;2023-07-20T05:08:45;100392.72;;;33.23;35.10
50250;BME280;36133;42.522;27.456;2023-07-20T05:11:11;100583.91;;;34.18;35.36
50250;BME280;36133;42.522;27.456;2023-07-20T05:13:37;100586.53;;;34.02;35.84
50250;BME280;36133;42.522;27.456;2023-07-20T05:16:03;100613.31;;;34.73;35.10
50250;BME280;36133;42.522;27.456;2023-07-20T05:18:29;100348.81;;;33.48;34.52
50250;BME280;36133;42.522;27.456;2023-07-20T05:20:54;100487.69;;;35.19;33.21
50250;BME280;36133;42.522;27.456;2023-07-20T05:23:20;100357.59;;;34.52;32.90
50250;BME280;36133;42.522;27.456;2023-07-20T05:25:47;100297.09;;;35.10;31.85
50250;BME280;36133;42.522;27.456;2023-07-20T05:28:13;100228.97;;;33.50;33.79
50250;BME280;36133;42.522;27.456;2023-07-20T05:30:40;100217.16;;;34.53;32.09
50250;BME280;36133;42.522;27.456;2023-07-20T05:33:05;100632.88;;;38.04;30.67
50250;BME280;36133;42.522;27.456;2023-07-20T05:35:31;100645.00;;;39.07;29.66
50250;BME280;36133;42.522;27.456;2023-07-20T05:37:56;100449.03;;;37.39;30.17
50250;BME280;36133;42.522;27.456;2023-07-20T05:40:22;100589.47;;;38.09;29.67
50250;BME280;36133;42.522;27.456;2023-07-20T05:42:48;100648.63;;;40.05;27.89
50250;BME280;36133;42.522;27.456;2023-07-20T05:45:17;100418.59;;;38.84;27.22
50250;BME280;36133;42.522;27.456;2023-07-20T05:47:43;100312.00;;;37.20;27.63
50250;BME280;36133;42.522;27.456;2023-07-20T05:50:09;100523.03;;;37.39;29.28
50250;BME280;36133;42.522;27.456;2023-07-20T05:52:36;100385.06;;;36.16;29.46
50250;BME280;36133;42.522;27.456;2023-07-20T05:55:01;100640.59;;;38.80;27.71
50250;BME280;36133;42.522;27.456;2023-07-20T05:57:27;100649.69;;;38.96;27.83
50250;BME280;36133;42.522;27.456;2023-07-20T05:59:55;100496.06;;;38.63;26.89
50250;BME280;36133;42.522;27.456;2023-07-20T06:02:21;100587.66;;;38.69;27.16
50250;BME280;36133;42.522;27.456;2023-07-20T06:04:47;100650.53;;;38.01;28.50
50250;BME280;36133;42.522;27.456;2023-07-20T06:07:14;100514.53;;;38.57;26.82
50250;BME280;36133;42.522;27.456;2023-07-20T06:09:40;100450.28;;;39.48;25.57
50250;BME280;36133;42.522;27.456;2023-07-20T06:12:06;100643.69;;;40.90;25.27
50250;BME280;36133;42.522;27.456;2023-07-20T06:14:32;100337.25;;;39.96;23.72
50250;BME280;36133;42.522;27.456;2023-07-20T06:16:58;100490.56;;;39.04;25.66
50250;BME280;36133;42.522;27.456;2023-07-20T06:19:24;100385.69;;;40.78;23.13
50250;BME280;36133;42.522;27.456;2023-07-20T06:21:56;100631.19;;;42.14;22.90
50250;BME280;36133;42.522;27.456;2023-07-20T06:24:25;100478.34;;;39.26;24.79
50250;BME280;36133;42.522;27.456;2023-07-20T06:26:53;100299.47;;;40.25;22.88
50250;BME280;36133;42.522;27.456;2023-07-20T06:29:36;100230.81;;;39.38;22.87
50250;BME280;36133;42.522;27.456;2023-07-20T06:32:06;100256.69;;;38.95;23.50
50250;BME280;36133;42.522;27.456;2023-07-20T06:34:45;100489.22;;;38.08;25.93
50250;BME280;36133;42.522;27.456;2023-07-20T06:37:11;100495.13;;;38.79;25.35
50250;BME280;36133;42.522;27.456;2023-07-20T06:39:36;100471.06;;;36.56;27.89
50250;BME280;36133;42.522;27.456;2023-07-20T06:42:09;100326.13;;;35.65;27.70
50250;BME280;36133;42.522;27.456;2023-07-20T06:44:44;100435.31;;;36.56;27.80
50250;BME280;36133;42.522;27.456;2023-07-20T06:47:10;100268.56;;;36.72;26.60
50250;BME280;36133;42.522;27.456;2023-07-20T06:49:37;100196.41;;;36.14;26.31
50250;BME280;36133;42.522;27.456;2023-07-20T06:52:03;100447.56;;;38.51;25.36
50250;BME280;36133;42.522;27.456;2023-07-20T06:54:35;100295.13;;;36.97;26.09
50250;BME280;36133;42.522;27.456;2023-07-20T06:57:01;100479.28;;;39.41;24.04
50250;BME280;36133;42.522;27.456;2023-07-20T06:59:26;100635.16;;;39.91;24.08
50250;BME280;36133;42.522;27.456;2023-07-20T07:01:55;100638.88;;;39.62;24.17
50250;BME280;36133;42.522;27.456;2023-07-20T07:04:21;100490.97;;;39.03;24.16
50250;BME280;36133;42.522;27.456;2023-07-20T07:07:10;100476.66;;;38.55;24.94
50250;BME280;36133;42.522;27.456;2023-07-20T07:09:35;100214.09;;;38.23;23.64
50250;BME280;36133;42.522;27.456;2023-07-20T07:12:30;100360.59;;;40.55;21.89
50250;BME280;36133;42.522;27.456;2023-07-20T07:15:04;100399.16;;;41.88;20.82
50250;BME280;36133;42.522;27.456;2023-07-20T07:17:36;100248.00;;;39.80;21.95
50250;BME280;36133;42.522;27.456;2023-07-20T07:20:37;100288.34;;;40.89;21.32
50250;BME280;36133;42.522;27.456;2023-07-20T07:23:03;100257.16;;;41.50;20.79
50250;BME280;36133;42.522;27.456;2023-07-20T07:25:38;100434.88;;;43.53;19.71
50250;BME280;36133;42.522;27.456;2023-07-20T07:28:30;100274.69;;;42.25;20.02
50250;BME280;36133;42.522;27.456;2023-07-20T07:30:58;100235.69;;;42.47;19.74
50250;BME280;36133;42.522;27.456;2023-07-20T07:33:44;100277.72;;;41.79;20.18
50250;BME280;36133;42.522;27.456;2023-07-20T07:36:36;100234.88;;;42.54;19.32
50250;BME280;36133;42.522;27.456;2023-07-20T07:39:11;100380.88;;;45.43;17.23
50250;BME280;36133;42.522;27.456;2023-07-20T07:41:48;100468.69;;;45.99;17.79
50250;BME280;36133;42.522;27.456;2023-07-20T07:44:39;100178.69;;;43.58;18.25
50250;BME280;36133;42.522;27.456;2023-07-20T07:47:07;100230.09;;;42.92;19.37
50250;BME280;36133;42.522;27.456;2023-07-20T07:49:42;100261.06;;;46.30;16.47
50250;BME280;36133;42.522;27.456;2023-07-20T07:52:17;100477.66;;;47.00;17.28
50250;BME280;36133;42.522;27.456;2023-07-20T07:54:46;100460.75;;;45.86;19.18
50250;BME280;36133;42.522;27.456;2023-07-20T07:57:16;100226.34;;;44.38;17.48
50250;BME280;36133;42.522;27.456;2023-07-20T07:59:43;100279.44;;;45.03;16.33
50250;BME280;36133;42.522;27.456;2023-07-20T08:02:08;100398.81;;;47.39;15.51
50250;BME280;36133;42.522;27.456;2023-07-20T08:04:41;100282.09;;;46.36;15.66
50250;BME280;36133;42.522;27.456;2023-07-20T08:07:10;100239.72;;;44.41;16.93
50250;BME280;36133;42.522;27.456;2023-07-20T08:10:02;100210.50;;;48.24;13.99
50250;BME280;36133;42.522;27.456;2023-07-20T08:12:35;100273.31;;;46.10;16.15
50250;BME280;36133;42.522;27.456;2023-07-20T08:15:04;100586.69;;;49.23;14.50
50250;BME280;36133;42.522;27.456;2023-07-20T08:17:32;100269.97;;;45.52;16.41
50250;BME280;36133;42.522;27.456;2023-07-20T08:20:00;100214.16;;;45.55;16.31
50250;BME280;36133;42.522;27.456;2023-07-20T08:22:26;100251.69;;;46.65;15.87
50250;BME280;36133;42.522;27.456;2023-07-20T08:24:55;100252.25;;;45.84;16.98
50250;BME280;36133;42.522;27.456;2023-07-20T08:27:21;100370.66;;;43.63;20.43
50250;BME280;36133;42.522;27.456;2023-07-20T08:29:46;100219.25;;;42.76;19.91
50250;BME280;36133;42.522;27.456;2023-07-20T08:32:12;100200.47;;;42.41;20.39
50250;BME280;36133;42.522;27.456;2023-07-20T08:34:39;100430.47;;;45.22;19.03
50250;BME280;36133;42.522;27.456;2023-07-20T08:37:06;100210.25;;;43.98;19.22
50250;BME280;36133;42.522;27.456;2023-07-20T08:39:31;100410.06;;;45.51;18.79
50250;BME280;36133;42.522;27.456;2023-07-20T08:41:59;100564.09;;;47.76;18.01
50250;BME280;36133;42.522;27.456;2023-07-20T08:44:29;100451.66;;;45.95;18.97
50250;BME280;36133;42.522;27.456;2023-07-20T08:46:59;100227.09;;;44.69;18.86
50250;BME280;36133;42.522;27.456;2023-07-20T08:49:28;100280.78;;;45.41;18.58
50250;BME280;36133;42.522;27.456;2023-07-20T08:51:54;100229.59;;;45.77;17.46
50250;BME280;36133;42.522;27.456;2023-07-20T08:54:20;100325.81;;;45.93;18.78
50250;BME280;36133;42.522;27.456;2023-07-20T08:56:46;100479.09;;;48.93;18.04
50250;BME280;36133;42.522;27.456;2023-07-20T08:59:13;100400.06;;;47.54;18.49
50250;BME280;36133;42.522;27.456;2023-07-20T09:01:49;100276.31;;;43.41;22.77
50250;BME280;36133;42.522;27.456;2023-07-20T09:04:15;100406.81;;;44.37;22.98
50250;BME280;36133;42.522;27.456;2023-07-20T09:06:41;100333.50;;;44.18;22.79
50250;BME280;36133;42.522;27.456;2023-07-20T09:09:13;100583.19;;;45.43;22.45
50250;BME280;36133;42.522;27.456;2023-07-20T09:11:46;100201.53;;;43.51;21.85
50250;BME280;36133;42.522;27.456;2023-07-20T09:14:15;100209.03;;;45.03;20.66
50250;BME280;36133;42.522;27.456;2023-07-20T09:16:53;100222.53;;;43.57;21.14
50250;BME280;36133;42.522;27.456;2023-07-20T09:19:26;100157.94;;;43.27;20.58
50250;BME280;36133;42.522;27.456;2023-07-20T09:21:55;100203.81;;;43.94;20.84
50250;BME280;36133;42.522;27.456;2023-07-20T09:24:29;100204.06;;;45.90;18.93
50250;BME280;36133;42.522;27.456;2023-07-20T09:27:44;100370.59;;;44.72;22.03
50250;BME280;36133;42.522;27.456;2023-07-20T09:30:19;100189.28;;;44.69;20.62
50250;BME280;36133;42.522;27.456;2023-07-20T09:32:56;100424.31;;;46.77;20.64
50250;BME280;36133;42.522;27.456;2023-07-20T09:35:23;100558.91;;;48.36;19.68
50250;BME280;36133;42.522;27.456;2023-07-20T09:38:02;100191.41;;;47.54;18.02
50250;BME280;36133;42.522;27.456;2023-07-20T09:40:41;100209.13;;;45.43;20.37
50250;BME280;36133;42.522;27.456;2023-07-20T09:43:42;100191.50;;;46.07;19.64
50250;BME280;36133;42.522;27.456;2023-07-20T09:46:50;100549.91;;;47.89;19.81
50250;BME280;36133;42.522;27.456;2023-07-20T09:52:29;100197.06;;;46.63;19.05
50250;BME280;36133;42.522;27.456;2023-07-20T09:58:28;100144.38;;;42.07;21.97
50250;BME280;36133;42.522;27.456;2023-07-20T10:01:21;100398.13;;;44.52;21.04
50250;BME280;36133;42.522;27.456;2023-07-20T10:04:05;100151.09;;;45.13;19.76
50250;BME280;36133;42.522;27.456;2023-07-20T10:06:49;100168.50;;;48.94;17.14
50250;BME280;36133;42.522;27.456;2023-07-20T10:09:28;100510.25;;;49.71;18.12
50250;BME280;36133;42.522;27.456;2023-07-20T10:12:27;100189.75;;;46.62;18.66
50250;BME280;36133;42.522;27.456;2023-07-20T10:15:27;100498.00;;;51.14;17.00
50250;BME280;36133;42.522;27.456;2023-07-20T10:18:28;100413.47;;;49.84;18.12
50250;BME280;36133;42.522;27.456;2023-07-20T10:21:18;100177.03;;;49.41;16.54
50250;BME280;36133;42.522;27.456;2023-07-20T10:24:02;100165.97;;;49.09;16.53
50250;BME280;36133;42.522;27.456;2023-07-20T10:26:34;100174.13;;;49.85;17.11
50250;BME280;36133;42.522;27.456;2023-07-20T10:29:00;100375.16;;;51.82;17.08
50250;BME280;36133;42.522;27.456;2023-07-20T10:31:37;100496.25;;;51.17;18.62
50250;BME280;36133;42.522;27.456;2023-07-20T10:34:10;100380.06;;;47.21;21.86
50250;BME280;36133;42.522;27.456;2023-07-20T10:36:52;100140.69;;;45.46;22.97
50250;BME280;36133;42.522;27.456;2023-07-20T10:39:57;100495.88;;;44.68;26.10
50250;BME280;36133;42.522;27.456;2023-07-20T10:42:33;100171.72;;;42.87;26.17
50250;BME280;36133;42.522;27.456;2023-07-20T10:45:12;100114.13;;;40.67;27.74
50250;BME280;36133;42.522;27.456;2023-07-20T10:47:45;100492.25;;;43.30;27.96
50250;BME280;36133;42.522;27.456;2023-07-20T10:50:36;100265.59;;;43.55;25.91
50250;BME280;36133;42.522;27.456;2023-07-20T10:53:22;100062.03;;;42.29;25.95
50250;BME280;36133;42.522;27.456;2023-07-20T10:56:13;100480.81;;;45.02;25.63
50250;BME280;36133;42.522;27.456;2023-07-20T11:02:12;100148.97;;;45.77;22.26
50250;BME280;36133;42.522;27.456;2023-07-20T11:08:09;100323.94;;;47.60;20.77
50250;BME280;36133;42.522;27.456;2023-07-20T11:11:26;100437.31;;;49.46;19.12
50250;BME280;36133;42.522;27.456;2023-07-20T11:14:26;100104.88;;;47.24;19.27
50250;BME280;36133;42.522;27.456;2023-07-20T11:17:14;100254.34;;;51.73;16.78
50250;BME280;36133;42.522;27.456;2023-07-20T11:22:42;100290.78;;;48.97;19.43
50250;BME280;36133;42.522;27.456;2023-07-20T11:25:37;100199.28;;;48.42;20.09
50250;BME280;36133;42.522;27.456;2023-07-20T11:28:24;100417.22;;;47.54;21.58
50250;BME280;36133;42.522;27.456;2023-07-20T11:30:52;100070.03;;;46.42;20.86
50250;BME280;36133;42.522;27.456;2023-07-20T11:33:40;100042.28;;;45.94;21.33
50250;BME280;36133;42.522;27.456;2023-07-20T11:39:32;100246.47;;;45.25;25.01
50250;BME280;36133;42.522;27.456;2023-07-20T11:42:19;100130.31;;;45.36;24.46
50250;BME280;36133;42.522;27.456;2023-07-20T11:45:18;100402.44;;;45.17;27.13
50250;BME280;36133;42.522;27.456;2023-07-20T11:48:23;100039.81;;;40.59;29.80
50250;BME280;36133;42.522;27.456;2023-07-20T11:50:59;100288.69;;;41.63;30.44
50250;BME280;36133;42.522;27.456;2023-07-20T11:53:28;100013.47;;;39.52;31.57
50250;BME280;36133;42.522;27.456;2023-07-20T12:05:31;100396.25;;;44.38;28.92
50250;BME280;36133;42.522;27.456;2023-07-20T12:08:15;100405.47;;;44.15;28.77
50250;BME280;36133;42.522;27.456;2023-07-20T12:10:43;100000.63;;;40.44;30.72
50250;BME280;36133;42.522;27.456;2023-07-20T12:13:17;100361.06;;;44.82;28.02
50250;BME280;36133;42.522;27.456;2023-07-20T12:16:29;99968.78;;;42.34;28.27
50250;BME280;36133;42.522;27.456;2023-07-20T12:22:50;100390.88;;;44.43;29.31
50250;BME280;36133;42.522;27.456;2023-07-20T12:25:22;100345.56;;;45.61;26.88
50250;BME280;36133;42.522;27.456;2023-07-20T12:28:12;100381.63;;;44.97;27.81
50250;BME280;36133;42.522;27.456;2023-07-20T12:30:47;100235.22;;;43.87;28.17
50250;BME280;36133;42.522;27.456;2023-07-20T12:33:22;99958.53;;;42.82;28.08
50250;BME280;36133;42.522;27.456;2023-07-20T12:35:50;100229.69;;;45.74;26.18
50250;BME280;36133;42.522;27.456;2023-07-20T12:38:33;100369.22;;;44.53;28.98
50250;BME280;36133;42.522;27.456;2023-07-20T12:41:02;100149.38;;;41.85;30.43
50250;BME280;36133;42.522;27.456;2023-07-20T12:43:34;99997.28;;;40.81;30.25
50250;BME280;36133;42.522;27.456;2023-07-20T12:46:00;100355.34;;;44.59;28.33
50250;BME280;36133;42.522;27.456;2023-07-20T12:49:06;100367.63;;;43.39;30.60
50250;BME280;36133;42.522;27.456;2023-07-20T12:52:39;99877.53;;;39.61;30.86
50250;BME280;36133;42.522;27.456;2023-07-20T12:54:59;100243.84;;;42.41;30.72
50250;BME280;36133;42.522;27.456;2023-07-20T12:57:52;100373.25;;;44.25;29.12
50250;BME280;36133;42.522;27.456;2023-07-20T13:01:04;100038.09;;;40.80;31.29
50250;BME280;36133;42.522;27.456;2023-07-20T13:07:40;99962.91;;;40.82;29.37
50250;BME280;36133;42.522;27.456;2023-07-20T13:10:13;100255.00;;;43.18;29.36
50250;BME280;36133;42.522;27.456;2023-07-20T13:12:45;99921.13;;;41.18;29.18
50250;BME280;36133;42.522;27.456;2023-07-20T13:15:23;99976.41;;;40.18;31.18
50250;BME280;36133;42.522;27.456;2023-07-20T13:17:52;100187.84;;;42.49;29.79
50250;BME280;36133;42.522;27.456;2023-07-20T13:20:18;99955.03;;;39.74;30.43
50250;BME280;36133;42.522;27.456;2023-07-20T13:22:51;99883.41;;;38.66;31.65
50250;BME280;36133;42.522;27.456;2023-07-20T13:25:24;100071.38;;;37.67;34.92
50250;BME280;36133;42.522;27.456;2023-07-20T13:27:49;100351.38;;;39.92;33.59
50250;BME280;36133;42.522;27.456;2023-07-20T13:30:15;99906.66;;;37.06;33.67
50250;BME280;36133;42.522;27.456;2023-07-20T13:32:47;100344.16;;;41.21;31.96
50250;BME280;36133;42.522;27.456;2023-07-20T13:35:13;100282.25;;;41.37;31.43
50250;BME280;36133;42.522;27.456;2023-07-20T13:37:57;100224.72;;;39.36;33.36
50250;BME280;36133;42.522;27.456;2023-07-20T13:40:43;100060.34;;;39.96;30.81
50250;BME280;36133;42.522;27.456;2023-07-20T13:43:30;100202.03;;;39.91;33.39
50250;BME280;36133;42.522;27.456;2023-07-20T13:46:00;100179.09;;;40.06;33.38
50250;BME280;36133;42.522;27.456;2023-07-20T13:52:00;99931.84;;;39.01;33.14